Time;durP1;ratioP1;P1;durP2;ratioP2;P2;SDS_P1;SDS_P2;PMS_P1;PMS_P2;Temp;Humidity;BMP_temperature;BMP_pressure;BME280_temperature;BME280_humidity;BME280_pressure;Samples;Min_cycle;Max_cycle;Signal;HPM_P1;HPM_P2
2022/01/21 00:01:45;;;;;;;3.97;2.15;;;-1.60;99.90;;;;;;5050822;28;20517;-49
2022/01/21 00:04:13;;;;;;;4.15;2.15;;;-1.80;99.90;;;;;;5051628;28;20281;-52
2022/01/21 00:06:40;;;;;;;2.65;1.55;;;-1.80;99.90;;;;;;5051540;28;20194;-54
2022/01/21 00:09:08;;;;;;;4.03;2.10;;;-1.80;99.90;;;;;;5050125;28;20207;-51
2022/01/21 00:11:39;;;;;;;4.13;1.90;;;-1.80;99.90;;;;;;5053644;28;20217;-53
2022/01/21 00:14:07;;;;;;;3.40;1.48;;;-1.80;99.90;;;;;;5057620;28;20588;-52
2022/01/21 00:16:38;;;;;;;2.72;1.67;;;-1.80;99.90;;;;;;5052182;28;20203;-54
2022/01/21 00:19:11;;;;;;;3.03;1.48;;;-1.90;99.90;;;;;;5054202;28;20211;-56
2022/01/21 00:30:13;;;;;;;5.60;2.33;;;-1.90;99.90;;;;;;5055333;28;20415;-52
2022/01/21 00:32:43;;;;;;;3.38;1.73;;;-1.90;99.90;;;;;;5049474;28;20203;-53
2022/01/21 00:35:12;;;;;;;5.00;1.77;;;-2.00;99.90;;;;;;5055474;28;20212;-52
2022/01/21 00:37:39;;;;;;;3.50;1.25;;;-2.00;99.90;;;;;;5055345;28;20289;-51
2022/01/21 00:40:10;;;;;;;3.65;1.70;;;-1.90;99.90;;;;;;5049506;28;20204;-52
2022/01/21 00:45:11;;;;;;;6.47;4.22;;;-2.00;99.90;;;;;;5049160;28;20212;-51
2022/01/21 00:47:38;;;;;;;2.72;1.55;;;-2.10;99.90;;;;;;5049108;28;20202;-54
2022/01/21 00:50:06;;;;;;;4.43;1.90;;;-2.10;99.90;;;;;;5052657;28;20245;-53
2022/01/21 00:52:34;;;;;;;3.75;2.38;;;-2.10;99.90;;;;;;5049466;28;20202;-49
2022/01/21 00:55:02;;;;;;;5.15;1.73;;;-2.00;99.90;;;;;;5049251;28;20228;-51
2022/01/21 00:57:29;;;;;;;2.55;1.42;;;-2.00;99.90;;;;;;5054044;28;20200;-49
2022/01/21 00:59:57;;;;;;;4.10;1.65;;;-2.10;99.90;;;;;;5052371;28;20536;-50
2022/01/21 01:02:25;;;;;;;2.70;1.50;;;-2.10;99.90;;;;;;5057097;28;20197;-48
2022/01/21 01:04:52;;;;;;;1.73;1.35;;;-2.00;99.90;;;;;;5049780;28;20231;-50
2022/01/21 01:07:24;;;;;;;6.68;1.88;;;-2.10;99.90;;;;;;5053977;28;20221;-53
2022/01/21 01:09:55;;;;;;;3.85;1.23;;;-2.00;99.90;;;;;;5049436;28;20207;-50
2022/01/21 01:20:43;;;;;;;2.97;1.60;;;-2.10;99.90;;;;;;5054025;28;20609;-51
2022/01/21 01:28:53;;;;;;;3.97;1.73;;;-2.10;99.90;;;;;;5058301;28;20427;-48
2022/01/21 01:31:20;;;;;;;5.95;1.30;;;-2.20;99.90;;;;;;5062300;28;20231;-52
2022/01/21 01:33:48;;;;;;;4.45;0.90;;;-2.20;99.90;;;;;;5055173;28;20231;-50
2022/01/21 01:36:15;;;;;;;8.52;1.35;;;-2.20;99.90;;;;;;5057952;28;20196;-49
2022/01/21 01:41:13;;;;;;;1.83;1.27;;;-2.10;99.90;;;;;;5054095;28;20211;-49
2022/01/21 01:52:19;;;;;;;3.75;1.45;;;-2.20;99.90;;;;;;5049862;28;20248;-51
2022/01/21 01:54:54;;;;;;;6.53;1.38;;;-2.20;99.90;;;;;;5049316;28;20453;-54
2022/01/21 01:57:22;;;;;;;7.43;2.03;;;-2.20;99.90;;;;;;5056843;28;20195;-50
2022/01/21 01:59:50;;;;;;;4.07;1.48;;;-2.20;99.90;;;;;;5059406;28;20196;-51
2022/01/21 02:02:19;;;;;;;4.13;1.50;;;-2.30;99.90;;;;;;5057501;28;20495;-48
2022/01/21 02:04:47;;;;;;;3.90;1.63;;;-2.30;99.90;;;;;;5049041;28;20223;-50
2022/01/21 02:07:14;;;;;;;3.85;1.90;;;-2.30;99.90;;;;;;5058263;28;20206;-50
2022/01/21 02:09:43;;;;;;;4.60;1.40;;;-2.20;99.90;;;;;;5056642;28;20253;-54
2022/01/21 02:12:10;;;;;;;3.75;1.60;;;-2.30;99.90;;;;;;5055137;28;20215;-54
2022/01/21 02:14:46;;;;;;;2.90;1.13;;;-2.20;99.90;;;;;;5057884;28;20231;-50
2022/01/21 02:21:27;;;;;;;1.27;1.00;;;-2.20;99.90;;;;;;5054916;28;20208;-48
2022/01/21 02:22:49;;;;;;;2.70;1.20;;;-2.30;99.90;;;;;;5047234;28;20518;-49
2022/01/21 02:25:18;;;;;;;2.15;0.90;;;-2.30;99.90;;;;;;5050557;28;20236;-53
2022/01/21 02:27:51;;;;;;;2.65;1.90;;;-2.20;99.90;;;;;;5043267;28;20204;-49
2022/01/21 02:30:21;;;;;;;4.30;1.27;;;-2.30;99.90;;;;;;5042787;28;20204;-51
2022/01/21 02:32:50;;;;;;;2.15;1.60;;;-2.30;99.90;;;;;;5042874;28;20196;-49
2022/01/21 02:35:19;;;;;;;2.15;1.95;;;-2.40;99.90;;;;;;5043760;28;20224;-52
2022/01/21 02:37:47;;;;;;;2.72;1.10;;;-2.40;99.90;;;;;;5043602;28;20449;-55
2022/01/21 02:40:17;;;;;;;4.30;1.92;;;-2.30;99.90;;;;;;5042102;28;20216;-49
2022/01/21 02:42:44;;;;;;;2.33;1.45;;;-2.20;99.90;;;;;;5041543;28;20205;-52
2022/01/21 02:45:14;;;;;;;1.77;1.67;;;-2.30;99.90;;;;;;5041066;28;20588;-52
2022/01/21 02:47:43;;;;;;;2.30;1.63;;;-2.30;99.90;;;;;;5046930;28;20301;-48
2022/01/21 02:50:12;;;;;;;3.45;1.70;;;-2.30;99.90;;;;;;5040795;28;20515;-51
2022/01/21 02:52:54;;;;;;;7.15;2.75;;;-2.40;99.90;;;;;;5041596;28;20234;-49
2022/01/21 02:55:23;;;;;;;4.03;1.80;;;-2.40;99.90;;;;;;5040964;28;20235;-51
2022/01/21 02:57:51;;;;;;;3.25;1.88;;;-2.40;99.90;;;;;;5041170;28;20219;-51
2022/01/21 03:00:18;;;;;;;3.92;1.73;;;-2.40;99.90;;;;;;5046747;28;20197;-50
2022/01/21 03:02:45;;;;;;;7.68;1.95;;;-2.30;99.90;;;;;;5044378;28;20254;-48
2022/01/21 03:05:15;;;;;;;3.55;2.10;;;-2.40;99.90;;;;;;5043690;28;20217;-49
2022/01/21 03:07:43;;;;;;;4.65;1.60;;;-2.50;99.90;;;;;;5046811;28;20217;-51
2022/01/21 03:10:12;;;;;;;2.90;1.70;;;-2.60;99.90;;;;;;5055830;28;20530;-51
2022/01/21 03:12:40;;;;;;;6.15;1.80;;;-2.70;99.90;;;;;;5060262;28;20207;-52
2022/01/21 03:15:08;;;;;;;3.10;2.10;;;-2.70;99.90;;;;;;5052782;28;20224;-47
2022/01/21 03:17:35;;;;;;;4.78;1.75;;;-2.70;99.90;;;;;;5054088;28;20219;-48
2022/01/21 03:20:04;;;;;;;4.05;1.67;;;-2.60;99.90;;;;;;5054216;28;20530;-54
2022/01/21 03:22:32;;;;;;;4.00;2.17;;;-2.50;99.90;;;;;;5056630;28;20199;-50
2022/01/21 03:25:00;;;;;;;2.65;1.63;;;-2.60;99.90;;;;;;5046078;28;20253;-50
2022/01/21 03:27:27;;;;;;;7.90;2.28;;;-2.60;99.90;;;;;;5056641;28;20200;-52
2022/01/21 03:29:55;;;;;;;4.63;2.00;;;-2.50;99.90;;;;;;5051134;28;20223;-53
2022/01/21 03:32:22;;;;;;;1.65;1.40;;;-2.60;99.90;;;;;;5055064;28;20200;-50
2022/01/21 03:34:49;;;;;;;6.03;1.67;;;-2.50;99.90;;;;;;5052042;28;20606;-50
2022/01/21 03:37:17;;;;;;;4.85;1.55;;;-2.30;99.90;;;;;;5056167;28;20272;-51
2022/01/21 03:39:44;;;;;;;5.75;2.28;;;-2.40;99.90;;;;;;5054756;28;20241;-51
2022/01/21 03:42:11;;;;;;;7.97;2.40;;;-2.40;99.90;;;;;;5059774;28;20196;-51
2022/01/21 03:44:38;;;;;;;8.00;2.03;;;-2.50;99.90;;;;;;5055605;28;20251;-50
2022/01/21 03:47:05;;;;;;;1.70;1.30;;;-2.40;99.90;;;;;;5048055;28;20204;-49
2022/01/21 03:49:39;;;;;;;1.35;1.20;;;-2.50;99.90;;;;;;5040062;28;20204;-50
2022/01/21 03:52:07;;;;;;;2.20;1.27;;;-2.40;99.90;;;;;;5040388;28;20338;-52
2022/01/21 03:54:36;;;;;;;1.20;1.10;;;-2.50;99.90;;;;;;5039747;28;20258;-49
2022/01/21 03:57:03;;;;;;;2.33;1.13;;;-2.40;99.90;;;;;;5040184;28;20196;-50
2022/01/21 03:59:31;;;;;;;1.70;1.30;;;-2.40;99.90;;;;;;5042231;28;20242;-51
2022/01/21 04:01:59;;;;;;;4.88;1.60;;;-2.40;99.90;;;;;;5043066;28;20235;-54
2022/01/21 04:04:27;;;;;;;8.85;2.35;;;-2.30;99.90;;;;;;5039420;28;20228;-47
2022/01/21 04:06:57;;;;;;;3.95;1.73;;;-2.20;99.90;;;;;;5043160;28;20206;-51
2022/01/21 04:09:24;;;;;;;4.35;1.70;;;-2.10;99.90;;;;;;5041694;28;20208;-48
2022/01/21 04:11:51;;;;;;;5.47;1.63;;;-2.10;99.90;;;;;;5040202;28;20204;-51
2022/01/21 04:14:19;;;;;;;1.60;1.50;;;-2.00;99.90;;;;;;5047761;28;20231;-51
2022/01/21 04:16:46;;;;;;;4.18;2.00;;;-2.00;99.90;;;;;;5039314;28;20514;-50
2022/01/21 04:19:13;;;;;;;6.72;2.25;;;-2.00;99.90;;;;;;5039729;28;20250;-49
2022/01/21 04:21:41;;;;;;;5.90;2.53;;;-2.10;99.90;;;;;;5039245;28;20378;-50
2022/01/21 04:24:09;;;;;;;3.00;1.33;;;-2.10;99.90;;;;;;5040017;28;20219;-52
2022/01/21 04:26:36;;;;;;;1.85;1.73;;;-2.20;99.90;;;;;;5041685;28;20215;-53
2022/01/21 04:29:03;;;;;;;3.38;1.55;;;-2.20;99.90;;;;;;5040414;28;20508;-50
2022/01/21 04:31:31;;;;;;;4.95;2.15;;;-2.20;99.90;;;;;;5039786;28;20222;-50
2022/01/21 04:33:58;;;;;;;2.58;1.63;;;-2.20;99.90;;;;;;5040392;28;20219;-48
2022/01/21 04:36:25;;;;;;;9.05;1.70;;;-2.10;99.90;;;;;;5040433;28;20234;-51
2022/01/21 04:38:55;;;;;;;2.13;1.42;;;-2.00;99.90;;;;;;5039931;28;20200;-48
2022/01/21 04:47:11;;;;;;;2.00;1.00;;;-2.10;99.90;;;;;;5043129;28;20491;-48
2022/01/21 04:49:48;;;;;;;3.35;1.63;;;-2.10;99.90;;;;;;5039675;28;20216;-49
2022/01/21 04:52:16;;;;;;;2.70;2.25;;;-2.10;99.90;;;;;;5039953;28;20230;-50
2022/01/21 04:54:43;;;;;;;2.35;2.15;;;-2.00;99.90;;;;;;5043335;28;20293;-51
2022/01/21 04:57:11;;;;;;;3.90;2.70;;;-1.90;99.90;;;;;;5044194;28;20278;-49
2022/01/21 04:59:39;;;;;;;6.55;2.45;;;-1.70;99.90;;;;;;5043567;28;20196;-52
2022/01/21 05:02:07;;;;;;;6.30;2.17;;;-1.70;99.90;;;;;;5043687;28;20330;-53
2022/01/21 05:04:35;;;;;;;6.60;2.00;;;-1.70;99.90;;;;;;5047000;28;20229;-49
2022/01/21 05:07:06;;;;;;;6.88;2.30;;;-1.70;99.90;;;;;;5047245;28;20200;-50
2022/01/21 05:09:35;;;;;;;2.05;1.40;;;-1.80;99.90;;;;;;5046420;28;20203;-48
2022/01/21 05:12:10;;;;;;;3.85;1.67;;;-1.80;99.90;;;;;;5043527;28;20341;-47
2022/01/21 05:15:03;;;;;;;1.58;1.45;;;-1.80;99.90;;;;;;5043160;28;20239;-49
2022/01/21 05:17:30;;;;;;;3.75;1.60;;;-1.80;99.90;;;;;;5043129;28;20243;-49
2022/01/21 05:19:57;;;;;;;3.38;1.35;;;-1.90;99.90;;;;;;5047280;28;20254;-50
2022/01/21 05:22:25;;;;;;;2.70;1.65;;;-1.80;99.90;;;;;;5049829;28;20534;-51
2022/01/21 05:24:52;;;;;;;2.63;1.48;;;-1.80;99.90;;;;;;5069219;28;20412;-50
2022/01/21 05:27:19;;;;;;;2.80;1.17;;;-1.70;99.90;;;;;;5082008;28;20237;-50
2022/01/21 05:29:48;;;;;;;2.38;1.70;;;-1.70;99.90;;;;;;5083233;28;20552;-48
2022/01/21 05:32:15;;;;;;;2.47;1.60;;;-1.90;99.90;;;;;;5083480;28;20434;-49
2022/01/21 05:34:42;;;;;;;4.70;1.35;;;-1.80;99.90;;;;;;5082692;28;20223;-48
2022/01/21 05:37:10;;;;;;;2.90;1.38;;;-1.80;99.90;;;;;;5083285;28;20234;-47
2022/01/21 05:39:37;;;;;;;6.15;1.85;;;-1.90;99.90;;;;;;5082553;28;20518;-50
2022/01/21 05:42:07;;;;;;;3.60;1.70;;;-2.00;99.90;;;;;;5083478;28;20209;-49
2022/01/21 05:47:03;;;;;;;10.05;1.83;;;-1.90;99.90;;;;;;5066723;28;20248;-52
2022/01/21 05:49:35;;;;;;;5.55;3.65;;;-2.00;99.90;;;;;;5074582;28;20238;-50
2022/01/21 05:52:10;;;;;;;3.47;2.20;;;-1.90;99.90;;;;;;5083259;28;20245;-49
2022/01/21 05:54:38;;;;;;;4.28;2.15;;;-1.80;99.90;;;;;;5083108;28;20225;-46
2022/01/21 05:57:06;;;;;;;5.68;1.70;;;-1.60;99.90;;;;;;5082680;28;20207;-49
2022/01/21 05:59:35;;;;;;;2.70;1.75;;;-1.50;99.90;;;;;;5083374;28;20241;-50
2022/01/21 06:02:02;;;;;;;4.43;1.63;;;-1.50;99.90;;;;;;5083011;28;20210;-50
2022/01/21 06:04:30;;;;;;;4.43;1.23;;;-1.70;99.90;;;;;;5066652;28;20261;-52
2022/01/21 06:07:00;;;;;;;9.13;2.28;;;-1.70;99.90;;;;;;5074759;28;20508;-50
2022/01/21 06:09:28;;;;;;;4.20;1.70;;;-1.90;99.90;;;;;;5082209;28;20221;-48
2022/01/21 06:11:55;;;;;;;3.58;1.85;;;-1.80;99.90;;;;;;5083062;28;20198;-46
2022/01/21 06:14:24;;;;;;;3.28;1.58;;;-1.90;99.90;;;;;;5081041;28;20337;-52
2022/01/21 06:16:52;;;;;;;4.85;1.80;;;-1.90;99.90;;;;;;5082337;28;20528;-53
2022/01/21 06:19:20;;;;;;;2.10;1.63;;;-1.90;99.90;;;;;;5081920;28;20195;-51
2022/01/21 06:21:47;;;;;;;4.22;1.63;;;-1.90;99.90;;;;;;5082381;28;20195;-51
2022/01/21 06:24:19;;;;;;;2.05;1.65;;;-1.90;99.90;;;;;;5082082;28;20227;-53
2022/01/21 06:26:47;;;;;;;6.40;2.20;;;-1.90;99.90;;;;;;5082070;28;20467;-53
2022/01/21 06:29:14;;;;;;;4.95;1.85;;;-1.80;99.90;;;;;;5082198;28;20393;-53
2022/01/21 06:31:42;;;;;;;5.47;2.33;;;-1.70;99.90;;;;;;5081865;28;20195;-52
2022/01/21 06:34:10;;;;;;;3.42;1.60;;;-1.80;99.90;;;;;;5081160;28;20334;-51
2022/01/21 06:36:40;;;;;;;7.68;2.72;;;-1.60;99.90;;;;;;5081479;28;20233;-52
2022/01/21 06:39:07;;;;;;;3.45;1.20;;;-1.50;99.90;;;;;;5072683;28;20241;-49
2022/01/21 06:41:35;;;;;;;2.22;1.70;;;-1.50;99.90;;;;;;5043437;28;20215;-50
2022/01/21 06:44:04;;;;;;;3.30;2.42;;;-1.50;99.90;;;;;;5059276;28;20550;-53
2022/01/21 06:46:31;;;;;;;3.08;1.38;;;-1.50;99.90;;;;;;5048510;28;20195;-51
2022/01/21 06:48:59;;;;;;;2.70;1.77;;;-1.40;99.90;;;;;;5045923;28;20267;-50
2022/01/21 06:51:26;;;;;;;1.30;1.10;;;-1.30;99.90;;;;;;5048505;28;20204;-47
2022/01/21 06:53:54;;;;;;;3.67;1.70;;;-1.20;99.90;;;;;;5045795;28;20228;-50
2022/01/21 06:56:22;;;;;;;3.03;1.58;;;-1.20;99.90;;;;;;5050903;28;20431;-49
2022/01/21 06:58:49;;;;;;;2.65;1.98;;;-1.20;99.90;;;;;;5055150;28;20197;-48
2022/01/21 07:01:16;;;;;;;1.45;1.10;;;-1.30;99.90;;;;;;5047442;28;20265;-48
2022/01/21 07:03:43;;;;;;;4.65;1.60;;;-1.20;99.90;;;;;;5051871;28;20216;-52
2022/01/21 07:06:11;;;;;;;4.45;1.75;;;-1.20;99.90;;;;;;5068658;28;20234;-49
2022/01/21 07:08:38;;;;;;;4.18;2.13;;;-1.20;99.90;;;;;;5081268;28;20540;-50
2022/01/21 07:11:05;;;;;;;5.22;1.73;;;-1.20;99.90;;;;;;5063296;28;20207;-48
2022/01/21 07:13:34;;;;;;;5.45;1.40;;;-1.30;99.90;;;;;;5073573;28;20276;-50
2022/01/21 07:16:02;;;;;;;4.22;2.20;;;-1.30;99.90;;;;;;5079302;28;20219;-48
2022/01/21 07:18:29;;;;;;;6.88;2.28;;;-1.30;99.90;;;;;;5080368;28;20202;-49
2022/01/21 07:20:56;;;;;;;2.20;1.35;;;-1.30;99.90;;;;;;5068059;28;20617;-49
2022/01/21 07:23:24;;;;;;;2.38;1.58;;;-1.40;99.90;;;;;;5049623;28;20239;-50
2022/01/21 07:25:51;;;;;;;6.93;1.80;;;-1.40;99.90;;;;;;5045052;28;20419;-52
2022/01/21 07:28:18;;;;;;;3.15;1.75;;;-1.50;99.90;;;;;;5051584;28;20204;-50
2022/01/21 07:30:45;;;;;;;3.17;1.40;;;-1.60;99.90;;;;;;5047618;28;20269;-50
2022/01/21 07:33:13;;;;;;;11.82;1.95;;;-1.50;99.90;;;;;;5062142;28;20432;-47
2022/01/21 07:35:41;;;;;;;14.88;2.50;;;-1.40;99.90;;;;;;5073100;28;20218;-49
2022/01/21 07:38:11;;;;;;;7.47;1.50;;;-1.30;99.90;;;;;;5055247;28;20263;-49
2022/01/21 07:40:38;;;;;;;4.95;2.38;;;-1.30;99.90;;;;;;5042944;28;20514;-52
2022/01/21 07:43:06;;;;;;;4.32;2.20;;;-1.20;99.90;;;;;;5061621;28;20250;-48
2022/01/21 07:45:34;;;;;;;2.30;1.90;;;-1.20;99.90;;;;;;5052808;28;20230;-52
2022/01/21 07:48:02;;;;;;;5.18;2.83;;;-1.20;99.90;;;;;;5063347;28;20533;-49
2022/01/21 07:50:31;;;;;;;2.35;1.48;;;-1.30;99.90;;;;;;5071227;28;20255;-53
2022/01/21 07:52:59;;;;;;;10.20;2.13;;;-0.90;99.90;;;;;;5079902;28;20199;-51
2022/01/21 07:55:27;;;;;;;3.78;2.20;;;-0.30;99.90;;;;;;5080087;28;20575;-50
2022/01/21 07:57:54;;;;;;;5.97;1.77;;;0.30;99.90;;;;;;5079156;28;20222;-52
2022/01/21 08:00:21;;;;;;;4.63;1.60;;;0.80;99.90;;;;;;5081071;28;20569;-48
2022/01/21 08:02:49;;;;;;;5.95;1.67;;;0.90;99.90;;;;;;5081237;28;20201;-50
2022/01/21 08:05:16;;;;;;;4.45;1.55;;;0.80;99.90;;;;;;5082893;28;20219;-50
2022/01/21 08:07:44;;;;;;;2.58;1.00;;;0.60;99.90;;;;;;5083924;28;20446;-50
2022/01/21 08:10:11;;;;;;;1.85;1.02;;;0.10;99.90;;;;;;5081274;28;20237;-50
2022/01/21 08:12:39;;;;;;;3.25;1.63;;;-0.40;99.90;;;;;;5080525;28;20237;-49
2022/01/21 08:15:06;;;;;;;1.50;1.40;;;-0.50;99.90;;;;;;5080221;28;20460;-48
2022/01/21 08:17:34;;;;;;;6.88;3.05;;;-0.50;99.90;;;;;;5080512;28;20256;-51
2022/01/21 08:20:01;;;;;;;1.95;1.60;;;-0.60;99.90;;;;;;5080388;28;20240;-51
2022/01/21 08:22:28;;;;;;;2.15;1.13;;;-0.60;99.90;;;;;;5080424;28;20265;-50
2022/01/21 08:24:55;;;;;;;4.07;1.60;;;-0.60;99.90;;;;;;5080378;28;20221;-53
2022/01/21 08:27:23;;;;;;;1.50;1.40;;;-0.50;99.90;;;;;;5080150;28;20198;-49
2022/01/21 08:29:50;;;;;;;6.45;3.25;;;-0.40;99.90;;;;;;5084615;28;20236;-49
2022/01/21 08:32:20;;;;;;;3.75;1.40;;;-0.30;99.90;;;;;;5081937;28;20252;-52
2022/01/21 08:34:49;;;;;;;4.85;3.00;;;-0.30;99.90;;;;;;5085222;28;20229;-50
2022/01/21 08:37:18;;;;;;;5.38;2.65;;;-0.20;99.90;;;;;;5081496;28;20251;-50
2022/01/21 08:39:45;;;;;;;1.85;1.50;;;-0.20;99.90;;;;;;5079145;28;20356;-50
2022/01/21 08:42:12;;;;;;;5.05;1.55;;;-0.20;99.90;;;;;;5079712;28;20202;-51
2022/01/21 08:44:40;;;;;;;2.88;1.40;;;-0.30;99.90;;;;;;5079535;28;20215;-47
2022/01/21 08:47:07;;;;;;;2.88;2.53;;;-0.30;99.90;;;;;;5083287;28;20191;-53
2022/01/21 08:49:39;;;;;;;1.70;1.60;;;-0.20;99.90;;;;;;5081267;28;20210;-48
2022/01/21 08:52:06;;;;;;;4.88;1.92;;;-0.20;99.90;;;;;;5079933;28;20207;-49
2022/01/21 08:54:34;;;;;;;13.23;2.10;;;-0.10;99.90;;;;;;5079369;28;20557;-50
2022/01/21 08:57:01;;;;;;;8.00;2.25;;;-0.10;99.90;;;;;;5079110;28;20223;-49
2022/01/21 08:59:30;;;;;;;4.10;1.60;;;0.00;99.90;;;;;;5079823;28;20248;-47
2022/01/21 09:01:58;;;;;;;2.70;1.30;;;0.00;99.90;;;;;;5079266;28;20498;-46
2022/01/21 09:04:26;;;;;;;3.30;2.95;;;-0.10;99.90;;;;;;5079814;28;20252;-48
2022/01/21 09:06:54;;;;;;;5.22;2.15;;;-0.20;99.90;;;;;;5078940;28;20205;-48
2022/01/21 09:09:21;;;;;;;3.05;2.15;;;-0.40;99.90;;;;;;5079535;28;20203;-47
2022/01/21 09:11:48;;;;;;;9.27;2.08;;;-0.20;99.90;;;;;;5079810;28;20510;-47
2022/01/21 09:14:15;;;;;;;6.97;1.77;;;0.20;99.90;;;;;;5080570;28;20272;-48
2022/01/21 09:16:43;;;;;;;6.50;2.67;;;0.20;99.90;;;;;;5083389;28;20229;-52
2022/01/21 09:19:11;;;;;;;3.78;1.85;;;-0.10;99.90;;;;;;5083626;28;20385;-47
2022/01/21 09:21:44;;;;;;;4.85;2.10;;;-0.30;99.90;;;;;;5083834;28;20209;-48
2022/01/21 09:24:12;;;;;;;2.83;1.95;;;-0.40;99.90;;;;;;5081105;28;20286;-50
2022/01/21 09:26:42;;;;;;;6.40;2.20;;;-0.40;99.90;;;;;;5079499;28;20427;-47
2022/01/21 09:29:09;;;;;;;3.10;1.83;;;-0.50;99.90;;;;;;5079534;28;20199;-48
2022/01/21 09:31:37;;;;;;;5.15;2.08;;;-0.50;99.90;;;;;;5079084;28;20199;-50
2022/01/21 09:34:24;;;;;;;3.80;1.98;;;-0.50;99.90;;;;;;5079004;28;20218;-50
2022/01/21 09:36:54;;;;;;;4.13;1.88;;;-0.50;99.90;;;;;;5078236;28;20246;-50
2022/01/21 09:39:23;;;;;;;7.38;1.70;;;-0.50;99.90;;;;;;5080544;28;20203;-49
2022/01/21 09:41:51;;;;;;;5.65;2.40;;;-0.50;99.90;;;;;;5082630;28;20221;-49
2022/01/21 09:44:20;;;;;;;1.92;1.40;;;-0.50;99.90;;;;;;5082505;28;20230;-49
2022/01/21 09:46:50;;;;;;;1.92;1.83;;;-0.50;99.90;;;;;;5082315;28;20425;-51
2022/01/21 09:49:26;;;;;;;3.58;2.38;;;-0.60;99.90;;;;;;5082343;28;20203;-49
2022/01/21 09:52:07;;;;;;;5.00;2.15;;;-0.60;99.90;;;;;;5082676;28;20267;-51
2022/01/21 09:54:48;;;;;;;1.75;1.65;;;-0.50;99.90;;;;;;5081842;28;20445;-52
2022/01/21 09:57:20;;;;;;;3.28;1.50;;;-0.50;99.90;;;;;;5081806;28;20225;-48
2022/01/21 09:59:49;;;;;;;5.22;1.65;;;-0.50;99.90;;;;;;5081686;28;20363;-46
2022/01/21 10:02:19;;;;;;;4.70;1.42;;;-0.40;99.90;;;;;;5082351;28;20263;-47
2022/01/21 10:04:49;;;;;;;2.63;1.33;;;-0.40;99.90;;;;;;5081882;28;20215;-50
2022/01/21 10:07:19;;;;;;;2.50;2.03;;;-0.40;99.90;;;;;;5082524;28;20229;-51
2022/01/21 10:09:48;;;;;;;7.30;2.28;;;-0.30;99.90;;;;;;5082347;28;20205;-53
2022/01/21 10:12:17;;;;;;;3.35;1.42;;;-0.20;99.90;;;;;;5082127;28;20207;-47
2022/01/21 10:14:45;;;;;;;5.35;2.45;;;0.00;99.90;;;;;;5082600;28;20487;-52
2022/01/21 10:17:14;;;;;;;1.92;1.67;;;0.40;99.90;;;;;;5081757;28;20221;-49
2022/01/21 10:19:48;;;;;;;5.25;1.95;;;0.50;99.90;;;;;;5082195;28;20202;-50
2022/01/21 10:22:19;;;;;;;5.45;2.60;;;0.40;99.90;;;;;;5082162;28;20501;-51
2022/01/21 10:24:59;;;;;;;3.90;2.72;;;0.20;99.90;;;;;;5083001;28;20214;-49
2022/01/21 10:27:29;;;;;;;2.63;1.70;;;0.50;99.90;;;;;;5084566;28;20265;-53
2022/01/21 10:29:57;;;;;;;8.05;1.80;;;0.60;99.90;;;;;;5084513;28;20555;-51
2022/01/21 10:32:35;;;;;;;3.17;1.90;;;0.60;99.90;;;;;;5082651;28;20199;-50
2022/01/21 10:35:30;;;;;;;1.83;1.70;;;0.70;99.90;;;;;;5083328;28;20268;-52
2022/01/21 10:38:29;;;;;;;6.47;2.25;;;0.60;99.90;;;;;;5084395;28;20212;-51
2022/01/21 10:41:05;;;;;;;2.97;1.83;;;0.30;99.90;;;;;;5085725;28;20229;-49
2022/01/21 10:43:33;;;;;;;3.15;2.10;;;0.20;99.90;;;;;;5086577;28;20297;-49
2022/01/21 10:46:03;;;;;;;2.78;1.40;;;0.30;99.90;;;;;;5087009;28;20296;-49
2022/01/21 10:48:51;;;;;;;10.65;2.53;;;0.50;99.90;;;;;;5086235;28;20213;-53
2022/01/21 10:51:25;;;;;;;3.45;1.80;;;0.60;99.90;;;;;;5085842;28;20198;-48
2022/01/21 10:53:54;;;;;;;4.30;2.72;;;0.40;99.90;;;;;;5083975;28;20219;-49
2022/01/21 10:56:24;;;;;;;4.32;1.98;;;0.30;99.90;;;;;;5082515;28;20230;-47
2022/01/21 10:58:53;;;;;;;5.65;2.35;;;0.30;99.90;;;;;;5082393;28;20195;-50
2022/01/21 11:01:28;;;;;;;2.65;1.63;;;0.30;99.90;;;;;;5082594;28;20456;-50
2022/01/21 11:04:15;;;;;;;3.63;2.25;;;0.30;99.90;;;;;;5082101;28;20226;-48
2022/01/21 11:06:52;;;;;;;4.57;2.70;;;0.20;99.90;;;;;;5081687;28;20252;-52
2022/01/21 11:09:31;;;;;;;8.18;1.98;;;0.10;99.90;;;;;;5080987;28;20198;-48
2022/01/21 11:12:09;;;;;;;5.28;2.70;;;0.30;99.90;;;;;;5081268;28;20502;-50
2022/01/21 11:14:38;;;;;;;6.47;1.38;;;0.30;99.90;;;;;;5080692;28;20218;-50
2022/01/21 11:17:16;;;;;;;4.28;2.63;;;0.30;99.90;;;;;;5080906;28;20429;-47
2022/01/21 11:20:13;;;;;;;5.03;2.15;;;0.40;99.90;;;;;;5081313;28;20252;-47
2022/01/21 11:22:56;;;;;;;7.63;2.03;;;0.60;99.90;;;;;;5081276;28;20428;-50
2022/01/21 11:25:49;;;;;;;5.88;2.30;;;0.80;99.90;;;;;;5080786;28;20541;-46
2022/01/21 11:28:22;;;;;;;4.22;1.60;;;1.00;99.90;;;;;;5079680;28;20199;-50
2022/01/21 11:30:50;;;;;;;2.85;1.95;;;1.20;99.90;;;;;;5080732;28;20202;-49
2022/01/21 11:33:20;;;;;;;6.13;1.88;;;1.30;99.90;;;;;;5080648;28;20276;-49
2022/01/21 11:35:49;;;;;;;2.55;1.42;;;1.60;99.90;;;;;;5080974;28;20218;-48
2022/01/21 11:38:18;;;;;;;4.15;1.92;;;1.70;99.90;;;;;;5081563;28;20195;-49
2022/01/21 11:40:47;;;;;;;2.00;1.75;;;1.80;99.90;;;;;;5082233;28;20294;-50
2022/01/21 11:43:15;;;;;;;4.10;1.65;;;1.70;99.90;;;;;;5083182;28;20240;-50
2022/01/21 11:48:51;;;;;;;10.35;2.50;;;1.40;99.90;;;;;;5081034;28;20224;-51
2022/01/21 11:51:29;;;;;;;7.60;2.47;;;1.30;99.90;;;;;;5080906;28;20207;-48
2022/01/21 11:54:05;;;;;;;5.38;2.85;;;1.30;99.90;;;;;;5080965;28;20225;-49
2022/01/21 11:56:51;;;;;;;6.38;2.40;;;1.50;99.90;;;;;;5079949;28;20319;-48
2022/01/21 11:59:32;;;;;;;4.35;1.75;;;1.60;99.90;;;;;;5080200;28;20201;-49
2022/01/21 12:02:20;;;;;;;13.68;2.67;;;1.60;99.90;;;;;;5078419;28;20481;-47
2022/01/21 12:04:53;;;;;;;8.25;3.65;;;1.50;99.90;;;;;;5080520;28;20284;-49
2022/01/21 12:07:33;;;;;;;4.00;2.40;;;1.70;99.90;;;;;;5080401;28;20187;-49
2022/01/21 12:10:10;;;;;;;1.55;1.15;;;1.70;99.90;;;;;;5083167;28;20229;-47
2022/01/21 12:12:55;;;;;;;2.83;1.95;;;1.60;99.90;;;;;;5080610;28;20202;-48
2022/01/21 12:15:30;;;;;;;5.75;2.15;;;1.60;99.90;;;;;;5080120;28;20266;-50
2022/01/21 12:21:48;;;;;;;2.15;1.55;;;1.60;99.90;;;;;;5077494;28;20562;-49
2022/01/21 12:24:36;;;;;;;5.25;1.95;;;1.60;99.90;;;;;;5079541;28;20215;-51
2022/01/21 12:27:04;;;;;;;10.80;1.48;;;1.60;99.90;;;;;;5080146;28;20276;-50
2022/01/21 12:29:31;;;;;;;6.82;2.20;;;1.60;99.90;;;;;;5080071;28;20282;-48
2022/01/21 12:32:04;;;;;;;5.22;2.00;;;1.60;99.90;;;;;;5079601;28;20336;-51
2022/01/21 12:34:56;;;;;;;0.80;0.65;;;1.60;99.90;;;;;;5079393;28;20219;-50
2022/01/21 12:37:26;;;;;;;5.60;3.13;;;1.50;99.90;;;;;;5078697;28;20285;-52
2022/01/21 12:39:53;;;;;;;1.13;0.90;;;1.30;99.90;;;;;;5072599;28;20211;-47
2022/01/21 12:42:25;;;;;;;3.47;1.00;;;1.20;99.90;;;;;;5077596;28;20194;-52
2022/01/21 12:45:03;;;;;;;2.72;1.35;;;1.10;99.90;;;;;;5079732;28;20214;-48
2022/01/21 12:47:38;;;;;;;4.55;1.30;;;1.00;99.90;;;;;;5079635;28;20205;-50
2022/01/21 12:50:12;;;;;;;1.55;1.30;;;1.00;99.90;;;;;;5079468;28;20376;-50
2022/01/21 12:53:07;;;;;;;3.88;2.13;;;0.90;99.90;;;;;;5079445;28;20214;-51
2022/01/21 12:55:55;;;;;;;4.57;2.30;;;0.80;99.90;;;;;;5079267;28;20525;-48
2022/01/21 12:58:32;;;;;;;5.15;2.17;;;1.00;99.90;;;;;;5079397;28;20233;-50
2022/01/21 13:01:05;;;;;;;4.93;1.30;;;1.10;99.90;;;;;;5079332;28;20202;-50
2022/01/21 13:03:46;;;;;;;3.70;1.50;;;1.20;99.90;;;;;;5079373;28;20300;-50
2022/01/21 13:06:19;;;;;;;3.63;2.00;;;1.50;99.90;;;;;;5078657;28;20381;-51
2022/01/21 13:09:07;;;;;;;1.67;1.20;;;1.70;99.90;;;;;;5079554;28;20207;-49
2022/01/21 13:11:39;;;;;;;7.43;2.15;;;1.90;99.90;;;;;;5079098;28;20244;-50
2022/01/21 13:14:34;;;;;;;2.83;2.30;;;2.00;99.90;;;;;;5080919;28;20626;-50
2022/01/21 13:17:14;;;;;;;1.92;1.40;;;2.00;99.90;;;;;;5082904;28;20260;-50
2022/01/21 13:19:55;;;;;;;3.85;1.45;;;2.10;99.90;;;;;;5083374;28;20194;-47
2022/01/21 13:22:35;;;;;;;2.78;2.15;;;2.00;99.90;;;;;;5082792;28;20249;-50
2022/01/21 13:25:09;;;;;;;1.58;1.20;;;2.10;99.90;;;;;;5082705;28;20264;-48
2022/01/21 13:27:53;;;;;;;4.25;2.05;;;2.20;99.90;;;;;;5082577;28;20199;-53
2022/01/21 13:30:23;;;;;;;5.93;1.63;;;2.30;99.90;;;;;;5082944;28;20198;-47
2022/01/21 13:33:07;;;;;;;5.30;2.28;;;2.30;99.90;;;;;;5083538;28;20521;-48
2022/01/21 13:35:36;;;;;;;1.73;1.48;;;2.00;99.90;;;;;;5084004;28;20199;-49
2022/01/21 13:38:11;;;;;;;1.63;1.52;;;2.00;99.90;;;;;;5083138;28;20314;-47
2022/01/21 13:40:46;;;;;;;5.93;1.33;;;1.90;99.90;;;;;;5082160;28;20292;-51
2022/01/21 13:43:13;;;;;;;4.97;2.97;;;2.00;99.90;;;;;;5078816;28;20209;-49
2022/01/21 13:45:42;;;;;;;2.30;1.52;;;2.00;99.90;;;;;;5062382;28;20507;-49
2022/01/21 13:48:11;;;;;;;6.18;2.15;;;2.00;99.90;;;;;;5062587;28;20231;-50
2022/01/21 13:50:44;;;;;;;2.35;1.10;;;2.00;99.90;;;;;;5063690;28;20249;-50
2022/01/21 13:53:14;;;;;;;3.33;2.97;;;1.90;99.90;;;;;;5065501;28;20249;-49
2022/01/21 13:55:49;;;;;;;1.25;1.00;;;1.80;99.90;;;;;;5062800;28;20418;-50
2022/01/21 13:58:29;;;;;;;2.05;1.00;;;1.70;99.90;;;;;;5062285;28;20223;-50
2022/01/21 14:01:01;;;;;;;7.38;1.75;;;1.80;99.90;;;;;;5062433;28;20253;-50
2022/01/21 14:03:31;;;;;;;3.70;1.23;;;1.60;99.90;;;;;;5061682;28;20223;-50